Time;durP1;ratioP1;P1;durP2;ratioP2;P2;SDS_P1;SDS_P2;PMS_P1;PMS_P2;Temp;Humidity;BMP_temperature;BMP_pressure;BME280_temperature;BME280_humidity;BME280_pressure;Samples;Min_cycle;Max_cycle;Signal;HPM_P1;HPM_P2
2021/10/08 00:01:26;;;;;;;22.10;10.30;;;;;;;5.20;77.37;99580.80;113629;1193;22466;-87
2021/10/08 00:03:52;;;;;;;18.00;8.30;;;;;;;5.19;77.39;99581.27;113628;1200;22902;-86
2021/10/08 00:06:18;;;;;;;19.30;9.30;;;;;;;5.16;77.43;99582.70;113563;1201;22428;-86
2021/10/08 00:08:59;;;;;;;22.00;8.90;;;;;;;5.12;77.47;99580.05;113533;1201;24278;-86
2021/10/08 00:11:26;;;;;;;19.70;9.70;;;;;;;5.09;77.68;99582.55;113539;1193;23999;-86
2021/10/08 00:13:53;;;;;;;20.00;9.40;;;;;;;5.08;77.75;99583.42;113868;1199;22667;-86
2021/10/08 00:16:20;;;;;;;16.60;8.80;;;;;;;5.06;77.42;99576.48;113602;1199;22709;-86
2021/10/08 00:19:01;;;;;;;17.80;8.80;;;;;;;5.05;77.73;99581.25;113590;1199;22444;-86
2021/10/08 00:21:33;;;;;;;18.90;8.10;;;;;;;5.04;77.83;99578.84;113496;1193;22626;-86
2021/10/08 00:23:59;;;;;;;18.70;9.60;;;;;;;5.04;77.85;99578.50;113623;1200;25048;-86
2021/10/08 00:26:25;;;;;;;20.20;9.10;;;;;;;5.04;78.03;99579.08;113534;1200;22439;-86
2021/10/08 00:28:52;;;;;;;17.20;8.40;;;;;;;5.03;78.02;99583.51;113446;1201;22484;-86
2021/10/08 00:31:18;;;;;;;20.40;9.00;;;;;;;4.98;77.84;99580.44;113370;1201;24178;-86
2021/10/08 00:33:44;;;;;;;19.90;9.30;;;;;;;4.93;78.17;99579.98;113706;1199;22436;-86
2021/10/08 00:36:11;;;;;;;22.20;8.90;;;;;;;4.91;78.10;99583.42;113998;1199;24051;-85
2021/10/08 00:38:37;;;;;;;18.30;8.90;;;;;;;4.89;78.16;99583.67;113553;1199;22863;-86
2021/10/08 00:41:06;;;;;;;14.40;8.60;;;;;;;4.88;78.18;99590.10;113883;1194;24036;-85
2021/10/08 00:43:33;;;;;;;22.50;9.80;;;;;;;4.86;78.37;99587.98;113716;1199;22450;-85
2021/10/08 00:45:59;;;;;;;22.60;10.50;;;;;;;4.84;78.31;99587.50;113450;1200;22421;-85
2021/10/08 00:48:25;;;;;;;23.50;9.50;;;;;;;4.83;78.33;99592.84;113712;1200;24127;-86
2021/10/08 00:51:06;;;;;;;20.30;10.20;;;;;;;4.82;78.61;99592.81;113743;1200;22446;-86
2021/10/08 00:53:33;;;;;;;19.00;8.70;;;;;;;4.81;78.64;99593.60;113564;1194;25109;-86
2021/10/08 00:56:01;;;;;;;17.30;7.90;;;;;;;4.81;78.32;99594.17;113790;1199;22427;-86
2021/10/08 00:58:29;;;;;;;21.20;9.00;;;;;;;4.80;78.41;99592.89;114022;1187;24082;-87
2021/10/08 01:00:55;;;;;;;23.30;8.90;;;;;;;4.78;78.67;99600.30;113747;1199;24083;-86
2021/10/08 01:03:22;;;;;;;20.10;9.00;;;;;;;4.76;78.68;99599.29;113771;1196;22436;-86
2021/10/08 01:05:49;;;;;;;19.20;9.40;;;;;;;4.74;78.76;99599.30;113568;1201;22445;-86
2021/10/08 01:08:15;;;;;;;18.10;8.90;;;;;;;4.72;78.60;99602.79;113646;1200;22555;-86
2021/10/08 01:10:44;;;;;;;17.20;8.00;;;;;;;4.71;78.84;99607.89;113682;1200;22862;-86
2021/10/08 01:13:13;;;;;;;19.90;8.70;;;;;;;4.71;78.85;99612.00;113503;1196;22444;-86
2021/10/08 01:15:40;;;;;;;17.80;9.30;;;;;;;4.72;78.88;99618.10;113628;1201;22559;-86
2021/10/08 01:18:07;;;;;;;19.60;8.50;;;;;;;4.70;78.97;99617.38;113435;1201;22439;-86
2021/10/08 01:20:35;;;;;;;18.00;8.70;;;;;;;4.66;78.99;99618.67;113672;1201;22611;-86
2021/10/08 01:23:18;;;;;;;18.80;9.70;;;;;;;4.62;79.14;99619.01;113870;1193;25377;-86
2021/10/08 01:25:51;;;;;;;21.30;8.70;;;;;;;4.60;79.02;99620.00;113765;1199;22430;-86
2021/10/08 01:28:22;;;;;;;18.90;8.40;;;;;;;4.58;79.08;99621.86;113939;1199;22412;-86
2021/10/08 01:30:49;;;;;;;19.90;8.50;;;;;;;4.56;79.00;99622.95;113977;1199;22928;-86
2021/10/08 01:33:18;;;;;;;21.90;9.50;;;;;;;4.54;79.31;99618.15;113598;1193;25251;-85
2021/10/08 01:35:49;;;;;;;16.90;8.40;;;;;;;4.51;79.39;99618.29;113595;1197;22443;-86
2021/10/08 01:38:16;;;;;;;19.90;8.90;;;;;;;4.48;79.50;99623.13;113807;1200;22461;-86
2021/10/08 01:40:42;;;;;;;25.30;9.10;;;;;;;4.47;79.74;99622.23;113650;1186;24295;-86
2021/10/08 01:43:12;;;;;;;17.20;8.30;;;;;;;4.45;79.67;99620.99;113483;1197;22430;-87
2021/10/08 01:45:40;;;;;;;23.90;9.90;;;;;;;4.44;79.62;99622.75;113467;1200;24034;-86
2021/10/08 01:48:07;;;;;;;16.50;8.80;;;;;;;4.43;79.74;99616.59;113752;1199;22471;-85
2021/10/08 01:50:34;;;;;;;25.10;9.40;;;;;;;4.42;79.77;99619.73;113844;1199;22556;-86
2021/10/08 01:53:01;;;;;;;21.90;9.40;;;;;;;4.40;79.82;99621.96;113802;1193;24255;-86
2021/10/08 01:55:27;;;;;;;27.70;9.80;;;;;;;4.37;79.72;99619.02;113680;1195;24162;-86
2021/10/08 01:57:58;;;;;;;21.40;8.90;;;;;;;4.37;79.72;99622.62;113470;1200;25146;-85
2021/10/08 02:00:26;;;;;;;19.40;9.00;;;;;;;4.36;79.75;99626.46;113722;1200;22436;-85
2021/10/08 02:02:58;;;;;;;25.30;10.00;;;;;;;4.36;80.01;99628.95;113810;1193;22860;-85
2021/10/08 02:05:25;;;;;;;19.10;8.20;;;;;;;4.36;79.92;99628.64;113541;1199;24089;-86
2021/10/08 02:08:06;;;;;;;23.90;9.30;;;;;;;4.31;79.94;99627.97;113922;1199;24099;-86
2021/10/08 02:10:33;;;;;;;20.70;9.70;;;;;;;4.25;79.84;99626.82;113905;1199;24047;-86
2021/10/08 02:12:59;;;;;;;19.50;9.00;;;;;;;4.23;80.07;99625.71;113493;1199;24252;-86
2021/10/08 02:15:27;;;;;;;19.40;9.00;;;;;;;4.20;80.14;99626.40;113798;1199;22468;-86
2021/10/08 02:17:54;;;;;;;18.70;9.50;;;;;;;4.19;80.33;99634.10;113507;1201;25053;-86
2021/10/08 02:20:21;;;;;;;23.40;9.70;;;;;;;4.21;80.33;99634.34;113626;1199;22417;-86
2021/10/08 02:22:47;;;;;;;16.50;9.20;;;;;;;4.21;80.39;99635.42;113406;1200;25111;-86
2021/10/08 02:25:15;;;;;;;25.20;10.40;;;;;;;4.20;80.57;99632.67;113720;1194;22753;-86
2021/10/08 02:27:41;;;;;;;27.80;10.20;;;;;;;4.18;80.47;99632.65;113878;1199;22454;-86
2021/10/08 02:30:09;;;;;;;21.20;9.00;;;;;;;4.18;80.34;99631.80;113918;1199;22440;-86
2021/10/08 02:32:37;;;;;;;20.10;8.60;;;;;;;4.18;80.39;99636.42;113673;1200;22480;-86
2021/10/08 02:35:05;;;;;;;19.00;9.30;;;;;;;4.21;80.39;99635.59;113574;1193;22597;-86
2021/10/08 02:37:32;;;;;;;20.20;9.50;;;;;;;4.22;80.60;99635.09;113601;1200;22731;-86
2021/10/08 02:39:59;;;;;;;19.60;8.70;;;;;;;4.21;80.55;99635.19;113513;1201;24044;-86
2021/10/08 02:42:25;;;;;;;21.70;10.10;;;;;;;4.19;80.51;99634.39;113512;1201;24136;-86
2021/10/08 02:44:52;;;;;;;21.70;8.60;;;;;;;4.16;80.33;99638.24;113612;1199;24205;-86
2021/10/08 02:47:19;;;;;;;20.10;9.80;;;;;;;4.13;80.49;99644.05;113888;1199;22423;-86
2021/10/08 02:49:45;;;;;;;23.40;8.80;;;;;;;4.10;80.44;99642.75;113624;1199;23764;-87
2021/10/08 02:52:12;;;;;;;24.00;9.10;;;;;;;4.07;80.59;99643.30;113933;1199;22894;-86
2021/10/08 02:54:41;;;;;;;20.20;9.50;;;;;;;4.06;80.72;99649.16;113483;1195;22452;-86
2021/10/08 02:57:07;;;;;;;20.40;9.30;;;;;;;4.03;80.52;99647.23;113511;1201;22453;-87
2021/10/08 02:59:34;;;;;;;20.00;9.60;;;;;;;4.01;80.61;99648.51;113408;1180;26390;-86
2021/10/08 03:02:00;;;;;;;19.30;9.20;;;;;;;4.01;80.94;99646.81;113478;1195;22497;-87
2021/10/08 03:04:29;;;;;;;20.40;9.00;;;;;;;4.01;80.79;99647.73;113591;1193;22693;-86
2021/10/08 03:06:57;;;;;;;23.40;9.50;;;;;;;4.03;80.86;99650.55;113904;1199;22439;-87
2021/10/08 03:09:23;;;;;;;25.50;11.50;;;;;;;4.03;80.91;99650.39;113612;1199;22428;-87
2021/10/08 03:11:50;;;;;;;23.00;9.60;;;;;;;4.02;80.72;99648.34;113570;1199;22441;-87
2021/10/08 03:14:17;;;;;;;19.30;9.40;;;;;;;4.01;80.89;99650.27;113811;1199;22479;-87
2021/10/08 03:16:44;;;;;;;16.40;8.60;;;;;;;4.01;81.02;99652.38;113499;1199;22430;-87
2021/10/08 03:19:10;;;;;;;20.50;8.80;;;;;;;4.03;80.97;99653.45;113501;1200;22480;-87
2021/10/08 03:21:36;;;;;;;21.20;9.30;;;;;;;4.04;80.83;99657.46;113736;1199;24050;-86
2021/10/08 03:24:04;;;;;;;21.70;10.00;;;;;;;4.03;80.71;99655.78;113796;1194;22445;-87
2021/10/08 03:26:45;;;;;;;25.50;10.30;;;;;;;4.01;80.82;99657.84;113739;1200;31754;-87
2021/10/08 03:29:11;;;;;;;23.10;10.00;;;;;;;3.97;80.82;99662.56;114000;1193;25223;-87
2021/10/08 03:31:38;;;;;;;22.20;9.90;;;;;;;3.93;80.62;99661.19;113739;1199;22716;-87
2021/10/08 03:34:04;;;;;;;18.10;9.30;;;;;;;3.90;80.80;99662.29;113683;1194;22441;-87
2021/10/08 03:39:12;;;;;;;22.50;10.10;;;;;;;3.83;81.00;99663.98;113499;1193;24077;-87
2021/10/08 03:41:40;;;;;;;23.00;9.90;;;;;;;3.81;81.13;99668.13;113679;1200;22555;-87
2021/10/08 03:44:07;;;;;;;28.20;10.50;;;;;;;3.76;81.15;99670.86;113645;1200;22528;-87
2021/10/08 03:46:40;;;;;;;23.30;10.00;;;;;;;3.72;81.29;99672.52;113534;1193;22429;-87
2021/10/08 03:51:35;;;;;;;24.10;10.50;;;;;;;3.74;81.63;99674.48;113559;1201;25055;-86
2021/10/08 03:54:03;;;;;;;20.60;10.10;;;;;;;3.75;81.49;99678.27;113828;1199;22435;-86
2021/10/08 03:56:30;;;;;;;24.40;10.00;;;;;;;3.74;81.46;99681.52;113954;1199;25041;-87
2021/10/08 03:58:58;;;;;;;21.10;10.20;;;;;;;3.69;81.44;99682.55;113546;1200;22422;-87
2021/10/08 04:01:26;;;;;;;22.40;9.40;;;;;;;3.66;81.43;99687.21;113594;1200;22474;-87
2021/10/08 04:04:08;;;;;;;23.00;9.60;;;;;;;3.67;81.60;99686.77;113646;1200;25321;-87
2021/10/08 04:06:35;;;;;;;16.70;8.60;;;;;;;3.67;81.55;99690.84;113725;1194;22422;-87
2021/10/08 04:09:05;;;;;;;21.90;9.80;;;;;;;3.67;81.48;99695.92;113842;1199;25166;-89
2021/10/08 04:11:33;;;;;;;20.20;9.90;;;;;;;3.64;81.51;99697.31;113915;1199;22421;-87
2021/10/08 04:14:01;;;;;;;17.40;9.50;;;;;;;3.59;81.53;99697.66;113837;1199;22436;-87
2021/10/08 04:16:42;;;;;;;25.70;9.70;;;;;;;3.53;81.52;99695.63;113771;1193;25207;-87
2021/10/08 04:19:08;;;;;;;23.90;9.80;;;;;;;3.50;81.64;99698.27;113702;1200;22582;-87
2021/10/08 04:21:34;;;;;;;19.10;9.90;;;;;;;3.49;81.67;99699.84;113652;1200;24151;-87
2021/10/08 04:24:01;;;;;;;17.70;9.60;;;;;;;3.47;81.93;99697.75;113680;1200;23864;-87
2021/10/08 04:26:28;;;;;;;20.40;11.00;;;;;;;3.41;81.81;99699.67;113939;1192;22415;-87
2021/10/08 04:28:54;;;;;;;19.90;9.70;;;;;;;3.33;82.10;99699.91;113579;1199;22466;-87
2021/10/08 04:31:22;;;;;;;20.80;10.40;;;;;;;3.28;82.15;99697.98;113761;1200;23929;-86
2021/10/08 04:33:48;;;;;;;22.20;10.70;;;;;;;3.26;82.03;99705.39;113579;1199;25126;-87
2021/10/08 04:36:15;;;;;;;27.60;9.50;;;;;;;3.25;82.11;99711.65;113615;1193;22440;-87
2021/10/08 04:38:41;;;;;;;32.70;10.50;;;;;;;3.24;82.44;99712.83;113461;1201;22434;-87
2021/10/08 04:41:11;;;;;;;21.70;10.80;;;;;;;3.20;82.38;99711.11;113647;1200;23770;-88
2021/10/08 04:43:38;;;;;;;30.10;11.40;;;;;;;3.22;82.43;99717.45;113529;1201;22441;-88
2021/10/08 04:46:06;;;;;;;21.50;10.40;;;;;;;3.22;82.30;99719.85;113601;1193;22423;-88
2021/10/08 04:48:33;;;;;;;20.60;9.80;;;;;;;3.22;82.31;99719.29;113819;1199;22436;-87
2021/10/08 04:50:59;;;;;;;19.40;9.90;;;;;;;3.24;82.67;99722.98;113552;1199;22450;-87
2021/10/08 04:53:27;;;;;;;25.40;9.90;;;;;;;3.25;82.38;99725.95;113858;1192;25030;-87
2021/10/08 04:55:56;;;;;;;24.50;9.90;;;;;;;3.25;82.33;99724.56;113575;1200;23746;-87
2021/10/08 04:58:23;;;;;;;25.30;11.00;;;;;;;3.22;82.26;99728.27;113258;1196;29240;-87
2021/10/08 05:00:50;;;;;;;17.50;9.20;;;;;;;3.20;82.52;99730.21;113788;1200;22475;-88
2021/10/08 05:03:19;;;;;;;24.80;10.10;;;;;;;3.20;82.33;99729.83;113422;1201;22559;-88
2021/10/08 05:05:50;;;;;;;20.20;9.40;;;;;;;3.23;82.49;99731.39;113487;1201;24082;-87
2021/10/08 05:08:22;;;;;;;20.60;9.80;;;;;;;3.23;82.44;99736.75;113618;1193;22458;-88
2021/10/08 05:10:50;;;;;;;27.40;10.60;;;;;;;3.23;82.25;99736.41;113965;1199;24106;-87
2021/10/08 05:13:33;;;;;;;22.80;10.50;;;;;;;3.21;82.22;99739.80;113843;1199;25257;-88
2021/10/08 05:15:59;;;;;;;17.80;9.30;;;;;;;3.21;82.18;99743.40;113638;1199;25000;-88
2021/10/08 05:18:26;;;;;;;24.40;10.40;;;;;;;3.22;82.22;99747.27;113426;1193;22447;-88
2021/10/08 05:20:52;;;;;;;17.80;8.90;;;;;;;3.25;82.28;99749.84;113521;1200;22441;-88
2021/10/08 05:23:19;;;;;;;23.30;10.60;;;;;;;3.27;82.14;99750.92;113401;1200;22432;-88
2021/10/08 05:25:46;;;;;;;20.00;9.90;;;;;;;3.27;82.51;99756.61;113490;1201;22449;-87
2021/10/08 05:28:13;;;;;;;31.10;10.90;;;;;;;3.30;82.21;99760.31;113401;1193;22431;-87
2021/10/08 05:30:40;;;;;;;20.10;9.80;;;;;;;3.29;82.05;99761.25;113385;1200;25049;-87
2021/10/08 05:33:22;;;;;;;23.20;9.60;;;;;;;3.32;82.24;99766.48;113723;1199;23770;-87
2021/10/08 05:35:49;;;;;;;21.50;9.60;;;;;;;3.36;82.25;99770.92;113425;1200;22437;-87
2021/10/08 05:38:18;;;;;;;24.00;9.30;;;;;;;3.39;82.16;99769.48;113699;1193;22433;-87
2021/10/08 05:40:47;;;;;;;20.80;9.60;;;;;;;3.39;82.00;99770.80;113790;1199;22430;-87
2021/10/08 05:43:15;;;;;;;23.70;10.20;;;;;;;3.38;82.15;99776.79;113433;1201;22504;-88
2021/10/08 05:45:43;;;;;;;25.50;9.50;;;;;;;3.40;82.16;99782.11;113659;1187;24143;-88
2021/10/08 05:48:10;;;;;;;21.10;9.30;;;;;;;3.41;82.05;99784.89;113788;1193;22487;-87
2021/10/08 05:50:37;;;;;;;24.70;9.90;;;;;;;3.42;82.28;99780.36;113652;1199;22496;-88
2021/10/08 05:53:08;;;;;;;20.40;10.40;;;;;;;3.48;82.42;99784.54;113795;1199;22447;-88
2021/10/08 05:55:36;;;;;;;22.90;10.20;;;;;;;3.51;82.51;99786.69;113464;1201;24148;-87
2021/10/08 05:58:03;;;;;;;23.80;10.20;;;;;;;3.53;82.23;99789.13;114239;1194;24279;-88
2021/10/08 06:00:30;;;;;;;21.00;9.90;;;;;;;3.56;82.03;99788.98;113780;1200;24154;-88
2021/10/08 06:02:56;;;;;;;23.70;9.00;;;;;;;3.60;82.46;99789.67;113758;1199;23804;-87
2021/10/08 06:05:25;;;;;;;21.40;9.00;;;;;;;3.66;82.25;99789.20;113618;1201;22713;-87
2021/10/08 06:07:51;;;;;;;21.30;8.90;;;;;;;3.71;82.22;99791.70;113568;1193;25093;-87
2021/10/08 06:10:18;;;;;;;23.60;10.20;;;;;;;3.77;82.09;99793.75;113490;1199;24046;-87
2021/10/08 06:12:45;;;;;;;17.90;8.90;;;;;;;3.80;81.83;99794.67;113539;1199;24151;-86
2021/10/08 06:15:12;;;;;;;20.90;10.50;;;;;;;3.83;81.96;99796.11;113809;1200;23090;-87
2021/10/08 06:17:39;;;;;;;21.40;9.60;;;;;;;3.88;81.83;99802.64;113715;1199;22443;-87
2021/10/08 06:20:06;;;;;;;30.00;10.40;;;;;;;3.93;81.94;99810.26;113734;1192;25169;-87
2021/10/08 06:22:36;;;;;;;19.80;8.50;;;;;;;3.99;81.84;99808.36;113691;1199;22514;-87
2021/10/08 06:25:04;;;;;;;18.10;8.50;;;;;;;4.04;81.57;99815.95;113846;1199;24199;-88
2021/10/08 06:27:31;;;;;;;20.20;9.60;;;;;;;4.09;81.44;99821.20;113529;1199;26383;-87
2021/10/08 06:29:58;;;;;;;20.80;9.50;;;;;;;4.13;81.38;99825.23;113828;1193;24119;-87
2021/10/08 06:32:40;;;;;;;21.90;10.30;;;;;;;4.18;81.22;99820.57;113777;1199;22464;-87
2021/10/08 06:35:21;;;;;;;25.30;9.80;;;;;;;4.25;81.35;99822.64;113917;1199;24286;-87
2021/10/08 06:37:50;;;;;;;21.80;8.80;;;;;;;4.31;81.23;99821.89;113932;1199;25051;-87
2021/10/08 06:40:16;;;;;;;24.20;10.00;;;;;;;4.36;80.98;99823.88;113820;1193;22727;-87
2021/10/08 06:42:44;;;;;;;23.00;10.40;;;;;;;4.43;81.00;99824.61;113859;1199;24073;-87
2021/10/08 06:45:34;;;;;;;24.60;11.30;;;;;;;4.52;80.80;99823.98;113480;1201;22626;-86
2021/10/08 06:48:01;;;;;;;20.40;9.30;;;;;;;4.58;80.74;99827.44;113669;1199;24147;-86
2021/10/08 06:50:32;;;;;;;30.20;10.60;;;;;;;4.61;79.88;99826.36;113952;1198;23046;-86
2021/10/08 06:52:58;;;;;;;25.20;10.50;;;;;;;4.66;79.71;99827.92;113885;1199;25232;-87
2021/10/08 06:55:27;;;;;;;21.30;9.60;;;;;;;4.73;79.95;99828.07;113695;1199;26386;-86
2021/10/08 06:57:54;;;;;;;24.70;10.20;;;;;;;4.79;79.83;99830.30;114142;1199;22480;-86
2021/10/08 07:00:20;;;;;;;23.70;9.90;;;;;;;4.86;80.03;99832.58;113639;1193;22428;-85
2021/10/08 07:02:49;;;;;;;22.40;9.60;;;;;;;4.91;79.88;99832.49;113593;1201;24118;-86
2021/10/08 07:05:18;;;;;;;;;;;;;;;4.96;79.63;99829.54;113732;1199;24228;-87
2021/10/08 07:07:45;;;;;;;27.70;10.30;;;;;;;5.02;79.81;99832.11;113894;1199;24294;-85
2021/10/08 07:10:13;;;;;;;23.50;11.00;;;;;;;5.08;79.42;99832.91;113887;1193;22533;-89
2021/10/08 07:12:40;;;;;;;27.60;11.00;;;;;;;5.15;79.41;99832.64;113784;1177;24074;-88
2021/10/08 07:15:15;;;;;;;23.80;9.70;;;;;;;5.22;78.83;99835.64;113483;1199;22457;-88
2021/10/08 07:17:50;;;;;;;23.60;9.80;;;;;;;5.28;78.84;99833.32;113417;1199;24488;-89
2021/10/08 07:20:20;;;;;;;18.40;7.00;;;;;;;5.37;79.18;99832.73;113790;1199;23098;-88
2021/10/08 07:22:47;;;;;;;24.60;10.90;;;;;;;5.43;78.73;99834.61;113613;1199;22443;-90
2021/10/08 07:25:14;;;;;;;25.20;10.60;;;;;;;5.51;78.70;99837.34;113874;1193;24879;-89
2021/10/08 07:27:43;;;;;;;23.60;11.90;;;;;;;5.59;78.71;99843.68;113690;1199;25077;-89
2021/10/08 07:30:10;;;;;;;19.60;8.90;;;;;;;5.66;78.49;99846.44;113810;1193;24107;-89
2021/10/08 07:32:37;;;;;;;29.80;10.20;;;;;;;5.74;78.09;99848.75;113904;1199;22555;-89
2021/10/08 07:35:18;;;;;;;20.40;9.60;;;;;;;5.79;77.69;99843.70;113523;1199;22416;-88
2021/10/08 07:37:44;;;;;;;26.90;10.90;;;;;;;5.83;77.48;99844.46;113862;1199;26257;-88
2021/10/08 07:40:12;;;;;;;21.00;8.70;;;;;;;5.87;77.36;99846.04;113870;1194;24104;-88
2021/10/08 07:42:39;;;;;;;25.20;10.70;;;;;;;5.91;77.25;99849.98;113813;1186;24062;-88
2021/10/08 07:45:08;;;;;;;18.20;9.10;;;;;;;5.97;77.02;99849.19;113664;1200;22579;-88
2021/10/08 07:47:35;;;;;;;19.90;9.80;;;;;;;6.02;77.09;99852.50;113742;1200;22726;-89
2021/10/08 07:50:01;;;;;;;20.80;8.70;;;;;;;6.10;77.24;99852.84;113588;1199;22449;-89
2021/10/08 07:52:27;;;;;;;22.20;10.30;;;;;;;6.18;77.45;99856.94;113908;1199;22899;-89
2021/10/08 07:55:10;;;;;;;20.30;10.20;;;;;;;6.28;77.39;99853.44;113586;1199;22584;-89
2021/10/08 07:57:38;;;;;;;26.20;10.00;;;;;;;6.38;77.36;99852.60;113953;1199;24085;-89
2021/10/08 08:00:08;;;;;;;20.50;9.30;;;;;;;6.46;77.10;99852.70;113607;1193;22488;-88
2021/10/08 08:02:41;;;;;;;26.10;11.20;;;;;;;6.55;76.55;99856.67;113604;1199;22972;-88
2021/10/08 08:05:08;;;;;;;25.50;10.70;;;;;;;6.66;76.59;99853.79;113769;1199;25053;-87
2021/10/08 08:07:34;;;;;;;19.70;10.00;;;;;;;6.75;76.34;99853.17;113760;1200;24052;-88
2021/10/08 08:10:05;;;;;;;23.90;10.10;;;;;;;6.84;76.00;99854.05;113628;1193;24080;-88
2021/10/08 08:12:31;;;;;;;19.50;9.50;;;;;;;6.93;75.88;99854.09;114043;1199;22426;-88
2021/10/08 08:14:57;;;;;;;20.60;9.60;;;;;;;7.00;75.50;99853.91;113923;1193;22457;-88
2021/10/08 08:17:24;;;;;;;20.20;9.30;;;;;;;7.08;75.13;99857.14;113512;1199;23096;-87
2021/10/08 08:20:06;;;;;;;20.20;8.60;;;;;;;7.15;74.56;99858.85;113966;1199;24071;-88
2021/10/08 08:22:32;;;;;;;24.20;9.00;;;;;;;7.20;74.28;99858.17;113721;1193;22461;-88
2021/10/08 08:24:59;;;;;;;20.00;9.30;;;;;;;7.26;73.07;99854.41;113472;1200;25105;-88
2021/10/08 08:27:25;;;;;;;21.40;9.40;;;;;;;7.33;73.49;99851.59;113466;1200;22509;-87
2021/10/08 08:29:51;;;;;;;23.10;9.90;;;;;;;7.39;72.73;99845.77;113513;1200;25103;-87
2021/10/08 08:32:17;;;;;;;26.30;9.50;;;;;;;7.47;73.34;99847.54;113814;1194;25041;-87
2021/10/08 08:34:44;;;;;;;26.20;9.60;;;;;;;7.55;72.54;99850.16;113891;1199;22427;-87
2021/10/08 08:37:10;;;;;;;18.40;8.30;;;;;;;7.64;72.89;99846.10;113575;1200;22438;-87
2021/10/08 08:39:39;;;;;;;16.00;9.10;;;;;;;7.74;72.50;99845.42;113781;1199;26268;-87
2021/10/08 08:42:05;;;;;;;22.00;8.70;;;;;;;7.83;71.74;99842.89;113820;1193;22429;-87
2021/10/08 08:44:48;;;;;;;23.80;8.00;;;;;;;7.93;71.79;99843.20;113543;1200;22444;-87
2021/10/08 08:47:17;;;;;;;18.40;8.50;;;;;;;8.04;71.44;99843.88;114055;1200;22492;-88
2021/10/08 08:49:44;;;;;;;23.80;8.30;;;;;;;8.16;70.04;99848.63;113862;1200;23749;-87
2021/10/08 08:52:11;;;;;;;19.00;7.80;;;;;;;8.27;69.62;99851.35;113930;1193;22671;-88
2021/10/08 08:54:39;;;;;;;18.20;7.00;;;;;;;8.38;69.00;99853.58;113894;1199;26380;-88
2021/10/08 08:57:11;;;;;;;23.60;8.00;;;;;;;8.48;68.59;99852.39;113664;1186;24034;-88
2021/10/08 09:00:05;;;;;;;16.20;7.00;;;;;;;8.60;68.95;99853.23;113635;1201;24136;-88
2021/10/08 09:02:34;;;;;;;16.70;8.30;;;;;;;8.75;68.77;99850.66;113817;1192;22460;-88
2021/10/08 09:05:02;;;;;;;18.20;8.00;;;;;;;8.90;68.87;99850.05;113761;1199;25051;-88
2021/10/08 09:07:37;;;;;;;14.20;7.80;;;;;;;9.03;68.15;99847.11;113611;1200;24037;-87
2021/10/08 09:10:24;;;;;;;17.90;8.10;;;;;;;9.13;67.06;99848.88;113584;1200;25306;-88
2021/10/08 09:12:53;;;;;;;19.00;8.80;;;;;;;9.22;66.96;99853.66;113933;1192;25135;-88
2021/10/08 09:15:21;;;;;;;20.20;8.70;;;;;;;9.31;65.85;99850.85;113976;1199;22460;-89
2021/10/08 09:17:49;;;;;;;19.40;8.30;;;;;;;9.38;64.66;99849.59;113566;1199;24059;-87
2021/10/08 09:20:24;;;;;;;17.90;7.90;;;;;;;9.43;65.03;99851.98;113588;1199;22484;-87
2021/10/08 09:22:54;;;;;;;13.60;6.90;;;;;;;9.52;65.48;99851.31;113659;1193;22445;-88
2021/10/08 09:25:30;;;;;;;21.50;8.30;;;;;;;9.63;64.96;99854.19;113683;1201;22422;-87
2021/10/08 09:28:06;;;;;;;18.10;7.70;;;;;;;9.72;63.58;99858.56;113683;1185;24058;-88
2021/10/08 09:30:51;;;;;;;13.60;6.70;;;;;;;9.78;63.83;99856.23;113533;1193;22437;-88
2021/10/08 09:33:20;;;;;;;19.70;7.80;;;;;;;9.85;63.31;99855.88;113750;1193;22422;-89
2021/10/08 09:35:51;;;;;;;18.60;7.50;;;;;;;9.92;62.87;99860.77;113669;1186;24136;-88
2021/10/08 09:38:19;;;;;;;16.20;7.00;;;;;;;10.01;62.75;99862.78;113788;1199;24070;-88
2021/10/08 09:41:06;;;;;;;21.00;7.30;;;;;;;10.08;61.52;99858.89;113783;1199;25174;-88
2021/10/08 09:43:35;;;;;;;20.30;8.20;;;;;;;10.13;61.73;99859.77;113573;1193;23230;-87
2021/10/08 09:46:04;;;;;;;15.10;7.40;;;;;;;10.20;62.23;99858.54;113633;1201;22476;-88
2021/10/08 09:48:31;;;;;;;;;;;;;;;10.30;61.68;99859.39;113929;1199;24051;-87
2021/10/08 09:51:13;;;;;;;19.00;8.50;;;;;;;10.38;61.70;99855.32;113587;1201;22465;-87
2021/10/08 09:53:57;;;;;;;18.60;8.20;;;;;;;10.49;62.07;99855.44;113643;1193;22507;-87
2021/10/08 09:56:37;;;;;;;16.10;7.90;;;;;;;10.61;61.63;99847.59;113684;1200;22436;-87
2021/10/08 09:59:06;;;;;;;18.40;7.60;;;;;;;10.70;60.40;99842.64;113833;1200;23209;-87
2021/10/08 10:01:37;;;;;;;16.80;7.10;;;;;;;10.77;60.16;99836.92;113635;1199;22455;-88
2021/10/08 10:04:05;;;;;;;18.40;8.30;;;;;;;10.84;58.80;99840.80;113592;1201;25298;-88
2021/10/08 10:06:32;;;;;;;20.40;8.20;;;;;;;10.87;58.61;99839.42;113909;1199;23487;-88
2021/10/08 10:09:08;;;;;;;18.60;7.40;;;;;;;10.92;58.46;99840.75;113779;1201;22460;-88
2021/10/08 10:11:36;;;;;;;15.70;7.30;;;;;;;10.99;57.77;99842.70;113591;1199;22452;-88
2021/10/08 10:14:04;;;;;;;15.40;7.00;;;;;;;11.05;57.66;99843.52;113799;1193;22447;-87
2021/10/08 10:16:45;;;;;;;17.90;7.00;;;;;;;11.10;57.00;99843.98;113873;1193;24278;-88
2021/10/08 10:19:11;;;;;;;15.30;6.90;;;;;;;11.18;57.43;99839.33;113588;1199;22892;-86
2021/10/08 10:21:40;;;;;;;18.40;7.30;;;;;;;11.28;56.11;99839.64;113834;1199;22435;-88
2021/10/08 10:24:09;;;;;;;22.80;7.00;;;;;;;11.36;55.97;99838.80;113621;1193;22450;-87
2021/10/08 10:26:38;;;;;;;15.00;7.40;;;;;;;11.44;54.33;99840.66;113509;1199;22440;-87
2021/10/08 10:29:05;;;;;;;15.30;7.10;;;;;;;11.52;53.65;99845.29;113761;1186;24120;-87
2021/10/08 10:31:35;;;;;;;12.20;6.50;;;;;;;11.63;53.31;99844.35;113655;1199;24030;-87
2021/10/08 10:34:04;;;;;;;20.10;6.80;;;;;;;11.70;51.95;99845.16;113804;1199;26267;-87
2021/10/08 10:36:38;;;;;;;16.30;7.80;;;;;;;11.75;52.20;99836.58;113685;1193;22444;-88
2021/10/08 10:39:23;;;;;;;19.00;8.00;;;;;;;11.84;52.04;99837.55;113775;1199;24139;-88
2021/10/08 10:42:15;;;;;;;14.80;7.90;;;;;;;11.94;51.97;99836.65;113854;1199;22498;-88
2021/10/08 10:45:10;;;;;;;18.50;7.90;;;;;;;12.05;51.56;99833.85;114181;1193;24075;-87
2021/10/08 10:47:38;;;;;;;21.60;7.60;;;;;;;12.16;50.53;99838.80;113731;1199;22455;-88
2021/10/08 10:50:25;;;;;;;18.30;7.70;;;;;;;12.23;49.67;99836.36;113559;1199;22482;-88
2021/10/08 10:53:06;;;;;;;14.90;7.60;;;;;;;12.30;50.29;99837.81;113702;1199;22578;-87
2021/10/08 10:55:33;;;;;;;13.40;7.20;;;;;;;12.39;49.99;99838.08;113766;1194;24156;-87
2021/10/08 10:58:06;;;;;;;18.10;7.70;;;;;;;12.46;49.31;99838.86;113637;1193;22900;-88
2021/10/08 11:00:41;;;;;;;16.60;7.10;;;;;;;12.52;48.25;99839.39;113756;1200;22561;-87
2021/10/08 11:03:14;;;;;;;16.20;7.30;;;;;;;12.56;46.67;99833.65;114050;1199;24098;-88
2021/10/08 11:06:05;;;;;;;15.40;6.70;;;;;;;12.57;46.82;99838.61;113908;1193;29527;-88
2021/10/08 11:08:31;;;;;;;13.20;6.60;;;;;;;12.59;47.14;99837.98;113804;1199;23165;-87
2021/10/08 11:11:00;;;;;;;12.40;6.60;;;;;;;12.66;47.69;99834.52;113636;1199;23031;-88
2021/10/08 11:13:35;;;;;;;15.90;7.40;;;;;;;12.75;48.21;99837.98;113643;1199;22505;-86
2021/10/08 11:16:06;;;;;;;13.90;6.50;;;;;;;12.84;47.72;99836.91;114136;1193;30407;-88
2021/10/08 11:18:36;;;;;;;17.30;7.20;;;;;;;12.92;47.18;99832.76;113977;1199;22458;-87
2021/10/08 11:21:03;;;;;;;16.40;6.90;;;;;;;12.96;44.91;99828.51;113667;1201;22458;-88
2021/10/08 11:23:36;;;;;;;15.50;6.80;;;;;;;12.97;45.21;99833.54;113608;1199;22863;-86
2021/10/08 11:26:12;;;;;;;14.20;7.20;;;;;;;13.04;45.74;99831.31;113800;1193;22434;-87
2021/10/08 11:28:45;;;;;;;16.10;8.00;;;;;;;13.09;45.83;99822.42;113646;1201;22446;-88
2021/10/08 11:31:17;;;;;;;19.40;7.70;;;;;;;13.15;45.55;99822.78;113583;1201;24158;-88
2021/10/08 11:33:46;;;;;;;21.30;7.30;;;;;;;13.17;45.05;99821.48;113608;1200;22432;-88
2021/10/08 11:36:18;;;;;;;19.40;7.50;;;;;;;13.22;45.93;99823.83;113593;1197;25171;-87
2021/10/08 11:38:45;;;;;;;17.60;7.00;;;;;;;13.28;45.44;99819.85;113637;1199;22447;-87